createdAt,value
2022-10-14T00:02:09.940Z,100591.56
2022-10-14T00:04:39.443Z,100592.59
2022-10-14T00:07:11.566Z,100588.91
2022-10-14T00:09:42.267Z,100594.69
2022-10-14T00:12:11.763Z,100590.78
2022-10-14T00:14:42.429Z,100589.94
2022-10-14T00:17:12.307Z,100592.38
2022-10-14T00:19:41.765Z,100583.56
2022-10-14T00:22:13.980Z,100586.25
2022-10-14T00:24:43.467Z,100578.25
2022-10-14T00:27:12.931Z,100591.56
2022-10-14T00:29:42.380Z,100586.69
2022-10-14T00:32:12.214Z,100597.94
2022-10-14T00:34:41.856Z,100597.09
2022-10-14T00:37:13.887Z,100601.03
2022-10-14T00:39:43.388Z,100598.00
2022-10-14T00:42:14.740Z,100594.53
2022-10-14T00:45:04.656Z,100596.81
2022-10-14T00:47:34.167Z,100594.38
2022-10-14T00:50:03.767Z,100579.28
2022-10-14T00:52:35.859Z,100583.25
2022-10-14T00:55:07.166Z,100582.50
2022-10-14T00:57:36.633Z,100580.25
2022-10-14T01:00:09.903Z,100587.41
2022-10-14T01:02:39.455Z,100575.59
2022-10-14T01:05:09.700Z,100585.06
2022-10-14T01:07:48.771Z,100585.06
2022-10-14T01:10:22.701Z,100590.16
2022-10-14T01:12:58.485Z,100586.25
2022-10-14T01:15:31.659Z,100588.66
2022-10-14T01:18:07.625Z,100593.19
2022-10-14T01:20:48.271Z,100585.22
2022-10-14T01:23:39.476Z,100587.88
2022-10-14T01:26:16.991Z,100582.97
2022-10-14T01:28:47.957Z,100584.84
2022-10-14T01:31:20.885Z,100585.63
2022-10-14T01:33:50.748Z,100579.28
2022-10-14T01:36:20.749Z,100581.78
2022-10-14T01:38:51.875Z,100571.28
2022-10-14T01:41:22.483Z,100574.19
2022-10-14T01:43:52.440Z,100567.63
2022-10-14T01:46:24.875Z,100557.19
2022-10-14T01:48:55.493Z,100553.28
2022-10-14T01:51:26.520Z,100546.50
2022-10-14T01:53:56.888Z,100547.06
2022-10-14T01:56:26.332Z,100543.00
2022-10-14T01:58:55.855Z,100545.44
2022-10-14T02:01:27.959Z,100539.09
2022-10-14T02:03:57.467Z,100541.38
2022-10-14T02:06:29.129Z,100538.56
2022-10-14T02:09:11.160Z,100533.81
2022-10-14T02:11:43.292Z,100533.97
2022-10-14T02:14:17.117Z,100528.22
2022-10-14T02:16:51.908Z,100524.53
2022-10-14T02:19:27.259Z,100532.88
2022-10-14T02:21:58.689Z,100529.19
2022-10-14T02:24:30.061Z,100512.16
2022-10-14T02:27:00.907Z,100513.81
2022-10-14T02:29:30.348Z,100507.31
2022-10-14T02:32:02.475Z,100507.72
2022-10-14T02:34:31.936Z,100498.72
2022-10-14T02:37:01.419Z,100505.88
2022-10-14T02:39:32.909Z,100501.97
2022-10-14T02:42:02.399Z,100496.44
2022-10-14T02:44:31.861Z,100491.47
2022-10-14T02:47:03.933Z,100494.06
2022-10-14T02:49:33.393Z,100487.94
2022-10-14T02:52:02.884Z,100485.69
2022-10-14T02:54:32.443Z,100481.19
2022-10-14T02:57:01.886Z,100480.38
2022-10-14T02:59:31.368Z,100482.03
2022-10-14T03:02:03.455Z,100468.72
2022-10-14T03:04:32.999Z,100467.88
2022-10-14T03:07:02.500Z,100460.47
2022-10-14T03:09:32.456Z,100465.00
2022-10-14T03:12:01.951Z,100463.97
2022-10-14T03:14:31.416Z,100469.06
2022-10-14T03:17:03.481Z,100459.47
2022-10-14T03:19:32.933Z,100468.25
2022-10-14T03:22:02.413Z,100463.53
2022-10-14T03:24:31.891Z,100462.72
2022-10-14T03:27:01.365Z,100461.66
2022-10-14T03:29:30.807Z,100452.63
2022-10-14T03:32:02.886Z,100459.22
2022-10-14T03:34:32.329Z,100446.16
2022-10-14T03:37:01.794Z,100445.31
2022-10-14T03:39:31.593Z,100449.81
2022-10-14T03:42:01.061Z,100456.56
2022-10-14T03:44:30.551Z,100452.63
2022-10-14T03:47:00.029Z,100445.69
2022-10-14T03:49:32.089Z,100451.63
2022-10-14T03:52:01.542Z,100455.09
2022-10-14T03:54:31.056Z,100448.34
2022-10-14T03:57:00.547Z,100452.63
2022-10-14T03:59:30.056Z,100450.78
2022-10-14T04:01:59.609Z,100455.09
2022-10-14T04:04:31.724Z,100454.28
2022-10-14T04:07:01.262Z,100452.41
2022-10-14T04:09:30.707Z,100454.28
2022-10-14T04:12:00.273Z,100454.66
2022-10-14T04:14:29.830Z,100460.78
2022-10-14T04:16:59.296Z,100448.06
2022-10-14T04:19:28.929Z,100444.78
2022-10-14T04:22:01.131Z,100446.38
2022-10-14T04:24:30.604Z,100443.72
2022-10-14T04:27:00.117Z,100432.22
2022-10-14T04:29:29.753Z,100430.63
2022-10-14T04:31:59.262Z,100424.84
2022-10-14T04:34:28.716Z,100423.59
2022-10-14T04:37:00.789Z,100414.56
2022-10-14T04:39:30.272Z,100413.75
2022-10-14T04:41:59.762Z,100413.53
2022-10-14T04:44:29.247Z,100420.94
2022-10-14T04:46:58.716Z,100413.94
2022-10-14T04:49:29.227Z,100410.72
2022-10-14T04:52:01.290Z,100408.06
2022-10-14T04:54:30.878Z,100411.53
2022-10-14T04:57:00.352Z,100411.75
2022-10-14T04:59:29.857Z,100413.38
2022-10-14T05:01:59.380Z,100411.28
2022-10-14T05:04:28.977Z,100411.28
2022-10-14T05:07:01.294Z,100409.88
2022-10-14T05:09:30.911Z,100411.53
2022-10-14T05:12:00.566Z,100409.47
2022-10-14T05:14:30.047Z,100421.72
2022-10-14T05:16:59.531Z,100416.41
2022-10-14T05:19:29.154Z,100412.47
2022-10-14T05:22:01.262Z,100417.00
2022-10-14T05:24:30.739Z,100406.22
2022-10-14T05:27:00.226Z,100399.94
2022-10-14T05:29:29.688Z,100395.72
2022-10-14T05:31:59.319Z,100388.78
2022-10-14T05:34:28.835Z,100392.47
2022-10-14T05:37:00.864Z,100390.59
2022-10-14T05:39:30.692Z,100394.91
2022-10-14T05:42:00.157Z,100382.88
2022-10-14T05:44:29.729Z,100397.34
2022-10-14T05:46:59.192Z,100392.00
2022-10-14T05:49:28.704Z,100402.22
2022-10-14T05:52:00.759Z,100401.53
2022-10-14T05:54:30.232Z,100384.31
2022-10-14T05:56:59.748Z,100386.53
2022-10-14T05:59:29.767Z,100383.06
2022-10-14T06:01:59.326Z,100383.88
2022-10-14T06:04:29.042Z,100383.66
2022-10-14T06:07:01.601Z,100377.94
2022-10-14T06:09:32.935Z,100376.94
2022-10-14T06:12:02.480Z,100374.28
2022-10-14T06:14:31.943Z,100369.97
2022-10-14T06:17:01.399Z,100377.16
2022-10-14T06:19:30.897Z,100382.00
2022-10-14T06:22:03.696Z,100377.88
2022-10-14T06:24:33.178Z,100374.91
2022-10-14T06:27:02.641Z,100371.47
2022-10-14T06:29:37.961Z,100370.78
2022-10-14T06:32:07.773Z,100370.56
2022-10-14T06:34:37.422Z,100373.38
2022-10-14T06:37:09.441Z,100372.06
2022-10-14T06:39:38.969Z,100374.59
2022-10-14T06:42:12.903Z,100375.38
2022-10-14T06:44:42.767Z,100378.41
2022-10-14T06:47:12.224Z,100372.44
2022-10-14T06:49:41.736Z,100367.75
2022-10-14T06:52:13.786Z,100368.94
2022-10-14T06:54:48.049Z,100364.00
2022-10-14T06:57:17.892Z,100368.31
2022-10-14T06:59:47.377Z,100372.59
2022-10-14T07:02:16.819Z,100365.19
2022-10-14T07:04:46.284Z,100368.41
2022-10-14T07:07:18.345Z,100362.50
2022-10-14T07:09:47.817Z,100363.47
2022-10-14T07:12:17.291Z,100358.19
2022-10-14T07:14:46.782Z,100360.50
2022-10-14T07:17:16.251Z,100359.72
2022-10-14T07:19:45.727Z,100353.34
2022-10-14T07:22:18.373Z,100355.56
2022-10-14T07:24:47.899Z,100347.72
2022-10-14T07:27:18.403Z,100353.63
2022-10-14T07:29:48.215Z,100355.09
2022-10-14T07:32:17.694Z,100365.22
2022-10-14T07:34:47.136Z,100368.94
2022-10-14T07:37:19.467Z,100365.72
2022-10-14T07:39:49.403Z,100374.06
2022-10-14T07:45:09.557Z,100372.63
2022-10-14T07:47:39.020Z,100376.03
2022-10-14T07:50:09.647Z,100367.28
2022-10-14T07:52:41.753Z,100368.13
2022-10-14T07:55:11.648Z,100359.63
2022-10-14T07:57:41.184Z,100356.41
2022-10-14T08:00:11.653Z,100359.31
2022-10-14T08:02:41.135Z,100353.34
2022-10-14T08:05:36.486Z,100353.47
2022-10-14T08:08:02.887Z,100357.13
2022-10-14T08:10:32.362Z,100353.78
2022-10-14T08:13:01.818Z,100355.44
2022-10-14T08:15:31.800Z,100357.13
2022-10-14T08:18:01.312Z,100350.91
2022-10-14T08:20:30.988Z,100353.47
2022-10-14T08:23:03.154Z,100351.03
2022-10-14T08:25:32.629Z,100350.25
2022-10-14T08:28:02.291Z,100347.09
2022-10-14T08:30:31.737Z,100353.13
2022-10-14T08:33:01.240Z,100353.81
2022-10-14T08:35:30.955Z,100351.72
2022-10-14T08:38:03.740Z,100350.84
2022-10-14T08:40:36.313Z,100346.56
2022-10-14T08:43:07.165Z,100343.09
2022-10-14T08:45:38.036Z,100343.19
2022-10-14T08:48:11.361Z,100339.00
2022-10-14T08:50:42.768Z,100332.53
2022-10-14T08:53:16.528Z,100337.84
2022-10-14T08:55:47.212Z,100331.97
2022-10-14T08:58:17.865Z,100339.25
2022-10-14T09:00:48.398Z,100340.56
2022-10-14T09:03:19.482Z,100330.22
2022-10-14T09:05:48.665Z,100337.44
2022-10-14T09:08:21.247Z,100339.44
2022-10-14T09:10:50.752Z,100339.59
2022-10-14T09:13:21.091Z,100322.25
2022-10-14T09:15:52.233Z,100331.88
2022-10-14T09:18:24.216Z,100328.28
2022-10-14T09:20:53.679Z,100321.00
2022-10-14T09:23:26.403Z,100302.88
2022-10-14T09:26:00.309Z,100303.56
2022-10-14T09:28:36.513Z,100308.00
2022-10-14T09:31:06.241Z,100300.22
2022-10-14T09:33:42.202Z,100290.03
2022-10-14T09:36:15.561Z,100297.66
2022-10-14T09:38:47.939Z,100292.94
2022-10-14T09:41:18.009Z,100292.09
2022-10-14T09:44:21.230Z,100296.28
2022-10-14T09:46:52.428Z,100282.50
2022-10-14T09:49:23.510Z,100278.56
2022-10-14T09:51:52.845Z,100276.59
2022-10-14T09:54:29.024Z,100267.69
2022-10-14T09:57:03.204Z,100271.25
2022-10-14T09:59:32.703Z,100263.84
2022-10-14T10:02:04.058Z,100252.84
2022-10-14T10:04:38.141Z,100260.97
2022-10-14T10:07:08.844Z,100266.13
2022-10-14T10:09:40.880Z,100253.81
2022-10-14T10:12:27.379Z,100255.50
2022-10-14T10:14:59.079Z,100259.97
2022-10-14T10:17:28.938Z,100250.63
2022-10-14T10:20:10.902Z,100250.28
2022-10-14T10:22:41.830Z,100255.94
2022-10-14T10:25:27.248Z,100259.06
2022-10-14T10:27:57.635Z,100261.97
2022-10-14T10:30:28.109Z,100254.03
2022-10-14T10:33:05.822Z,100257.78
2022-10-14T10:35:37.012Z,100255.00
2022-10-14T10:38:10.054Z,100250.91
2022-10-14T10:40:49.401Z,100241.19
2022-10-14T10:43:52.006Z,100239.09
2022-10-14T10:46:28.259Z,100232.31
2022-10-14T10:49:01.635Z,100222.28
2022-10-14T10:51:34.521Z,100220.75
2022-10-14T10:54:10.358Z,100221.72
2022-10-14T10:56:45.065Z,100215.31
2022-10-14T10:59:44.155Z,100214.03
2022-10-14T11:02:48.010Z,100217.88
2022-10-14T11:05:19.732Z,100213.56
2022-10-14T11:08:08.064Z,100212.44
2022-10-14T11:10:54.723Z,100207.94
2022-10-14T11:13:32.368Z,100202.06
2022-10-14T11:16:04.023Z,100200.75
2022-10-14T11:18:37.087Z,100197.81
2022-10-14T11:21:11.925Z,100205.59
2022-10-14T11:23:46.683Z,100205.94
2022-10-14T11:26:27.241Z,100201.41
2022-10-14T11:29:04.153Z,100195.25
2022-10-14T11:31:37.436Z,100196.81
2022-10-14T11:34:17.053Z,100190.34
2022-10-14T11:36:50.120Z,100184.34
2022-10-14T11:39:28.696Z,100187.34
2022-10-14T11:42:06.037Z,100185.72
2022-10-14T11:44:39.167Z,100172.94
2022-10-14T11:47:12.304Z,100173.19
2022-10-14T11:49:46.137Z,100172.06
2022-10-14T11:52:19.081Z,100169.63
2022-10-14T11:54:49.763Z,100160.25
2022-10-14T11:57:24.039Z,100161.63
2022-10-14T12:00:11.503Z,100154.72
2022-10-14T12:02:45.026Z,100164.28
2022-10-14T12:05:19.335Z,100156.34
2022-10-14T12:07:53.449Z,100159.22
2022-10-14T12:10:25.782Z,100158.41
2022-10-14T12:12:55.252Z,100157.03
2022-10-14T12:15:27.920Z,100158.78
2022-10-14T12:17:58.015Z,100149.38
2022-10-14T12:20:33.228Z,100159.47
2022-10-14T12:23:02.696Z,100153.06
2022-10-14T12:25:37.263Z,100149.97
2022-10-14T12:28:08.870Z,100150.53
2022-10-14T12:30:42.050Z,100139.88
2022-10-14T12:33:12.405Z,100136.97
2022-10-14T12:35:59.361Z,100137.91
2022-10-14T12:38:29.347Z,100140.81
2022-10-14T12:40:58.905Z,100133.75
2022-10-14T12:43:29.767Z,100130.63
2022-10-14T12:46:13.584Z,100138.59
2022-10-14T12:48:50.996Z,100135.69
2022-10-14T12:51:21.728Z,100133.38
2022-10-14T12:54:05.768Z,100133.75
2022-10-14T12:56:37.149Z,100127.44
2022-10-14T12:59:07.751Z,100126.38
2022-10-14T13:01:39.901Z,100129.53
2022-10-14T13:04:10.811Z,100135.31
2022-10-14T13:06:42.343Z,100128.09
2022-10-14T13:09:36.419Z,100123.28
2022-10-14T13:12:45.124Z,100122.09
2022-10-14T13:15:34.964Z,100124.59
2022-10-14T13:18:38.045Z,100109.88
2022-10-14T13:21:08.083Z,100101.34
2022-10-14T13:23:41.048Z,100090.53
2022-10-14T13:26:21.969Z,100089.03
2022-10-14T13:28:57.661Z,100083.25
2022-10-14T13:31:29.040Z,100078.88
2022-10-14T13:34:07.011Z,100073.31
2022-10-14T13:36:38.318Z,100060.22
2022-10-14T13:39:07.953Z,100057.41
2022-10-14T13:41:38.026Z,100056.28
2022-10-14T13:44:07.670Z,100052.44
2022-10-14T13:46:38.405Z,100060.69
2022-10-14T13:51:47.460Z,100060.66
2022-10-14T13:54:21.967Z,100056.84
2022-10-14T13:57:38.275Z,100068.44
2022-10-14T14:02:48.033Z,100062.53
2022-10-14T14:05:22.470Z,100060.91
2022-10-14T14:11:10.985Z,100057.28
2022-10-14T14:13:32.390Z,100058.53
2022-10-14T14:16:01.848Z,100061.72
2022-10-14T14:18:49.476Z,100044.16
2022-10-14T14:21:29.487Z,100043.94
2022-10-14T14:24:00.749Z,100033.25
2022-10-14T14:26:35.571Z,100029.44
2022-10-14T14:29:06.758Z,100022.72
2022-10-14T14:34:26.118Z,100015.16
2022-10-14T14:37:10.762Z,100007.50
2022-10-14T14:39:49.693Z,100013.59
2022-10-14T14:42:19.118Z,100013.53
2022-10-14T14:44:49.835Z,99999.72
2022-10-14T14:47:19.470Z,100002.63
2022-10-14T14:49:51.593Z,99998.94
2022-10-14T14:52:29.438Z,100004.38
2022-10-14T14:54:58.912Z,99999.94
2022-10-14T14:57:28.368Z,99999.50
2022-10-14T15:00:02.301Z,100000.28
2022-10-14T15:02:31.882Z,100008.13
2022-10-14T15:05:02.393Z,100001.38
2022-10-14T15:07:34.636Z,100007.28
2022-10-14T15:10:04.802Z,100017.31
2022-10-14T15:12:39.272Z,100017.50
2022-10-14T15:15:26.751Z,100014.44
2022-10-14T15:18:08.770Z,100015.66
2022-10-14T15:20:38.370Z,100008.41
2022-10-14T15:23:37.695Z,100001.81
2022-10-14T15:26:23.885Z,99999.50
2022-10-14T15:29:08.954Z,99977.75
2022-10-14T15:31:38.760Z,99970.16
2022-10-14T15:34:08.257Z,99966.56
2022-10-14T15:36:37.750Z,99974.19
2022-10-14T15:39:07.222Z,99976.38
2022-10-14T15:41:39.280Z,99976.69
2022-10-14T15:44:08.724Z,99967.63
2022-10-14T15:46:50.821Z,99970.84
2022-10-14T15:49:25.808Z,99977.56
2022-10-14T15:51:55.291Z,99969.91
2022-10-14T15:54:27.059Z,99965.34
2022-10-14T15:56:59.671Z,99961.63
2022-10-14T15:59:29.143Z,99972.13
2022-10-14T16:01:58.971Z,99963.34
2022-10-14T16:04:29.110Z,99961.47
2022-10-14T16:06:58.999Z,99956.72
2022-10-14T16:09:29.380Z,99951.28
2022-10-14T16:12:01.393Z,99945.13
2022-10-14T16:14:30.836Z,99940.34
2022-10-14T16:17:05.775Z,99933.66
2022-10-14T16:19:35.940Z,99937.38
2022-10-14T16:22:05.401Z,99934.47
2022-10-14T16:24:34.956Z,99929.94
2022-10-14T16:27:07.016Z,99936.91
2022-10-14T16:29:36.544Z,99931.25
2022-10-14T16:32:06.020Z,99944.09
2022-10-14T16:34:35.462Z,99939.31
2022-10-14T16:37:07.093Z,99924.94
2022-10-14T16:39:36.577Z,99933.66
2022-10-14T16:42:09.233Z,99928.00
2022-10-14T16:44:38.783Z,99922.66
2022-10-14T16:47:20.947Z,99917.84
2022-10-14T16:49:51.936Z,99913.28
2022-10-14T16:52:21.969Z,99908.03
2022-10-14T16:54:51.749Z,99917.41
2022-10-14T16:57:24.895Z,99926.53
2022-10-14T16:59:54.397Z,99927.34
2022-10-14T17:02:31.811Z,99936.16
2022-10-14T17:05:01.252Z,99941.50
2022-10-14T17:07:30.716Z,99931.78
2022-10-14T17:10:00.496Z,99939.88
2022-10-14T17:12:32.817Z,99946.75
2022-10-14T17:15:02.344Z,99943.03
2022-10-14T17:17:31.873Z,99951.28
2022-10-14T17:20:01.332Z,99955.50
2022-10-14T17:22:30.814Z,99953.38
2022-10-14T17:25:00.287Z,99944.31
2022-10-14T17:27:32.317Z,99940.63
2022-10-14T17:30:02.002Z,99945.47
2022-10-14T17:32:31.692Z,99944.16
2022-10-14T17:35:01.149Z,99944.72
2022-10-14T17:37:32.993Z,99939.38
2022-10-14T17:40:02.841Z,99945.22
2022-10-14T17:42:34.907Z,99947.66
2022-10-14T17:45:04.346Z,99946.28
2022-10-14T17:47:34.227Z,99946.81
2022-10-14T17:50:03.744Z,99950.31
2022-10-14T17:52:33.199Z,99944.72
2022-10-14T17:55:02.685Z,99944.97
2022-10-14T17:57:34.724Z,99937.75
2022-10-14T18:00:04.193Z,99941.50
2022-10-14T18:02:33.709Z,99940.13
2022-10-14T18:05:03.229Z,99942.00
2022-10-14T18:07:34.738Z,99940.13
2022-10-14T18:10:05.640Z,99945.97
2022-10-14T18:12:37.705Z,99941.91
2022-10-14T18:15:08.536Z,99935.69
2022-10-14T18:17:39.412Z,99940.47
2022-10-14T18:20:09.649Z,99933.75
2022-10-14T18:22:39.143Z,99933.19
2022-10-14T18:25:09.525Z,99922.75
2022-10-14T18:27:41.570Z,99923.81
2022-10-14T18:30:14.612Z,99923.50
2022-10-14T18:32:44.076Z,99927.75
2022-10-14T18:35:13.549Z,99923.63
2022-10-14T18:37:43.175Z,99933.25
2022-10-14T18:40:16.924Z,99931.38
2022-10-14T18:42:48.991Z,99928.50
2022-10-14T18:45:18.841Z,99929.06
2022-10-14T18:47:49.233Z,99933.59
2022-10-14T18:50:18.729Z,99927.84
2022-10-14T18:52:48.266Z,99917.88
2022-10-14T18:55:17.785Z,99911.38
2022-10-14T18:57:49.845Z,99902.75
2022-10-14T19:00:19.713Z,99901.53
2022-10-14T19:02:49.267Z,99901.88
2022-10-14T19:05:19.142Z,99898.59
2022-10-14T19:07:48.663Z,99891.97
2022-10-14T19:10:18.164Z,99890.75
2022-10-14T19:12:50.774Z,99887.34
2022-10-14T19:15:24.557Z,99881.56
2022-10-14T19:17:56.569Z,99888.41
2022-10-14T19:20:26.017Z,99885.28
2022-10-14T19:22:56.881Z,99891.28
2022-10-14T19:25:26.496Z,99886.66
2022-10-14T19:27:58.580Z,99872.09
2022-10-14T19:30:28.275Z,99873.16
2022-10-14T19:32:57.775Z,99881.69
2022-10-14T19:35:27.247Z,99882.38
2022-10-14T19:37:56.725Z,99877.63
2022-10-14T19:40:26.207Z,99884.31
2022-10-14T19:42:58.288Z,99889.31
2022-10-14T19:45:28.026Z,99884.63
2022-10-14T19:47:57.485Z,99878.25
2022-10-14T19:50:26.931Z,99870.44
2022-10-14T19:52:56.394Z,99872.63
2022-10-14T19:55:25.861Z,99866.03
2022-10-14T19:57:57.960Z,99859.31
2022-10-14T20:00:27.425Z,99864.66
2022-10-14T20:02:56.903Z,99853.16
2022-10-14T20:05:26.388Z,99856.47
2022-10-14T20:07:57.222Z,99852.16
2022-10-14T20:10:26.677Z,99850.88
2022-10-14T20:12:58.700Z,99847.53
2022-10-14T20:15:28.165Z,99845.50
2022-10-14T20:17:57.642Z,99845.34
2022-10-14T20:20:27.237Z,99840.88
2022-10-14T20:22:56.675Z,99841.25
2022-10-14T20:25:27.243Z,99836.22
2022-10-14T20:27:59.425Z,99835.91
2022-10-14T20:30:28.888Z,99836.63
2022-10-14T20:32:58.358Z,99824.25
2022-10-14T20:37:58.256Z,99824.59
2022-10-14T20:40:27.883Z,99827.34
2022-10-14T20:42:59.925Z,99820.72
2022-10-14T20:45:29.501Z,99820.47
2022-10-14T20:47:58.959Z,99811.66
2022-10-14T20:50:28.399Z,99809.56
2022-10-14T20:52:59.506Z,99805.53
2022-10-14T20:55:28.892Z,99799.06
2022-10-14T20:58:00.951Z,99805.78
2022-10-14T21:00:30.425Z,99815.63
2022-10-14T21:02:59.881Z,99807.63
2022-10-14T21:05:29.363Z,99806.59
2022-10-14T21:07:58.818Z,99800.75
2022-10-14T21:10:28.382Z,99793.59
2022-10-14T21:13:00.445Z,99793.34
2022-10-14T21:15:29.904Z,99793.34
2022-10-14T21:17:59.361Z,99799.47
2022-10-14T21:20:28.872Z,99798.41
2022-10-14T21:22:58.331Z,99801.91
2022-10-14T21:25:27.903Z,99793.09
2022-10-14T21:27:59.961Z,99792.28
2022-10-14T21:30:29.508Z,99791.97
2022-10-14T21:32:58.984Z,99788.25
2022-10-14T21:35:28.535Z,99780.72
2022-10-14T21:37:58.043Z,99782.78
2022-10-14T21:40:27.714Z,99777.13
2022-10-14T21:42:59.763Z,99772.34
2022-10-14T21:45:29.223Z,99761.94
2022-10-14T21:50:48.341Z,99754.59
2022-10-14T21:53:17.803Z,99762.34
2022-10-14T21:55:47.247Z,99758.63
2022-10-14T21:58:19.270Z,99753.84
2022-10-14T22:00:48.863Z,99742.88
2022-10-14T22:03:19.401Z,99735.63
2022-10-14T22:05:48.912Z,99740.97
2022-10-14T22:08:22.978Z,99737.47
2022-10-14T22:10:55.208Z,99744.16
2022-10-14T22:13:27.424Z,99739.44
2022-10-14T22:15:57.223Z,99741.28
2022-10-14T22:18:26.781Z,99741.28
2022-10-14T22:21:03.994Z,99721.00
2022-10-14T22:23:33.486Z,99726.81
2022-10-14T22:26:03.359Z,99729.00
2022-10-14T22:28:35.445Z,99727.72
2022-10-14T22:31:08.091Z,99732.31
2022-10-14T22:33:37.978Z,99727.56
2022-10-14T22:36:11.271Z,99729.16
2022-10-14T22:38:41.444Z,99722.53
2022-10-14T22:41:10.968Z,99719.59
2022-10-14T22:43:43.109Z,99711.63
2022-10-14T22:46:14.276Z,99721.97
2022-10-14T22:48:43.725Z,99709.16
2022-10-14T22:51:14.000Z,99706.41
2022-10-14T22:53:43.691Z,99699.94
2022-10-14T22:56:14.344Z,99701.72
2022-10-14T22:58:46.798Z,99701.47
2022-10-14T23:01:17.220Z,99699.63
2022-10-14T23:03:46.762Z,99703.81
2022-10-14T23:06:16.399Z,99700.59
2022-10-14T23:08:45.826Z,99710.69
2022-10-14T23:11:16.469Z,99714.16
2022-10-14T23:13:48.548Z,99703.09
2022-10-14T23:16:19.227Z,99689.44
2022-10-14T23:18:48.850Z,99683.66
2022-10-14T23:21:19.379Z,99675.34
2022-10-14T23:23:49.706Z,99679.03
2022-10-14T23:26:21.338Z,99679.63
2022-10-14T23:28:53.990Z,99688.66
2022-10-14T23:31:24.175Z,99687.38
2022-10-14T23:33:53.769Z,99673.69
2022-10-14T23:36:24.247Z,99680.41
2022-10-14T23:38:54.082Z,99677.81
2022-10-14T23:41:24.346Z,99680.00
2022-10-14T23:43:56.894Z,99678.47
2022-10-14T23:46:26.419Z,99681.69
2022-10-14T23:49:06.752Z,99682.50
2022-10-14T23:51:37.437Z,99669.72
2022-10-14T23:54:07.068Z,99669.41
2022-10-14T23:56:36.739Z,99665.38
2022-10-14T23:59:08.767Z,99678.69
